Time;durP1;ratioP1;P1;durP2;ratioP2;P2;SDS_P1;SDS_P2;PMS_P1;PMS_P2;Temp;Humidity;BMP_temperature;BMP_pressure;BME280_temperature;BME280_humidity;BME280_pressure;Samples;Min_cycle;Max_cycle;Signal;HPM_P1;HPM_P2
2022/06/06 00:04:37;;;;;;;23.77;14.88;;;15.60;99.90;;;;;;4957171;29;20061;-86
2022/06/06 00:07:29;;;;;;;22.20;14.15;;;15.50;99.90;;;;;;4939600;29;20082;-86
2022/06/06 00:10:29;;;;;;;22.95;12.70;;;15.50;99.90;;;;;;4934665;23;20070;-86
2022/06/06 00:13:51;;;;;;;20.92;13.05;;;15.40;99.90;;;;;;4973641;28;20063;-86
2022/06/06 00:17:14;;;;;;;17.88;10.68;;;15.30;99.90;;;;;;4965745;28;20117;-86
2022/06/06 00:24:29;;;;;;;17.08;9.63;;;15.20;99.90;;;;;;4959231;28;20142;-86
2022/06/06 00:26:56;;;;;;;16.25;9.00;;;15.00;99.90;;;;;;4958607;28;20055;-87
2022/06/06 00:29:35;;;;;;;15.80;8.88;;;15.00;99.90;;;;;;4959784;28;20189;-88
2022/06/06 00:35:44;;;;;;;16.52;8.95;;;16.10;99.90;;;;;;4976639;28;20050;-87
2022/06/06 00:38:31;;;;;;;16.08;9.38;;;15.90;99.90;;;;;;4957570;28;20042;-88
2022/06/06 00:41:30;;;;;;;13.88;7.90;;;15.00;99.90;;;;;;4976680;28;20129;-87
2022/06/06 00:51:23;;;;;;;13.18;7.30;;;14.40;99.90;;;;;;4878973;29;20541;-88
2022/06/06 01:01:26;;;;;;;12.32;6.75;;;15.00;99.90;;;;;;4974099;28;20468;-88
2022/06/06 01:03:52;;;;;;;14.15;7.43;;;14.90;99.90;;;;;;4959533;28;20046;-87
2022/06/06 01:10:19;;;;;;;10.85;5.97;;;15.00;99.90;;;;;;4996853;28;20514;-87
2022/06/06 01:13:31;;;;;;;11.68;6.28;;;14.90;99.90;;;;;;4982051;28;20418;-87
2022/06/06 01:27:04;;;;;;;13.25;7.05;;;14.80;99.90;;;;;;4978802;28;20054;-87
2022/06/06 01:29:53;;;;;;;12.45;7.32;;;14.90;99.90;;;;;;4977530;28;20053;-87
2022/06/06 01:32:53;;;;;;;16.80;8.98;;;16.10;99.90;;;;;;4994639;28;20065;-87
2022/06/06 01:36:10;;;;;;;21.48;12.45;;;15.00;99.90;;;;;;4997428;28;20061;-86
2022/06/06 01:38:37;;;;;;;29.40;16.13;;;14.60;99.90;;;;;;4977997;28;20137;-87
2022/06/06 01:41:42;;;;;;;26.90;16.05;;;16.10;99.90;;;;;;4994860;28;20042;-86
2022/06/06 01:45:04;;;;;;;30.77;18.90;;;15.20;99.90;;;;;;4934318;29;20059;-87
2022/06/06 01:54:28;;;;;;;28.80;16.42;;;15.10;99.90;;;;;;4918080;29;20048;-87
2022/06/06 01:57:28;;;;;;;26.63;16.13;;;14.90;99.90;;;;;;4933909;29;20107;-86
2022/06/06 02:00:14;;;;;;;30.42;16.70;;;15.00;99.90;;;;;;4918298;29;20592;-87
2022/06/06 02:02:48;;;;;;;32.08;17.40;;;14.90;99.90;;;;;;4917411;29;20147;-87
2022/06/06 02:05:26;;;;;;;31.98;17.75;;;14.90;99.90;;;;;;4934170;29;20043;-86
2022/06/06 02:08:08;;;;;;;33.63;17.25;;;14.80;99.90;;;;;;4916258;29;20044;-88
2022/06/06 02:10:35;;;;;;;37.95;18.35;;;14.80;99.90;;;;;;4933483;29;20397;-86
2022/06/06 02:13:07;;;;;;;35.58;18.70;;;14.70;99.90;;;;;;4918077;29;20801;-87
2022/06/06 02:15:33;;;;;;;44.33;20.25;;;14.80;99.90;;;;;;4981811;28;20204;-87
2022/06/06 02:17:59;;;;;;;40.05;19.27;;;14.90;99.90;;;;;;4993234;28;20396;-87
2022/06/06 02:20:40;;;;;;;42.00;20.60;;;14.90;99.90;;;;;;4955666;28;20058;-87
2022/06/06 02:23:32;;;;;;;44.35;22.45;;;14.50;99.90;;;;;;4957052;28;20069;-86
2022/06/06 02:26:14;;;;;;;43.95;22.20;;;14.50;99.90;;;;;;4972837;28;20090;-87
2022/06/06 02:28:49;;;;;;;43.83;21.38;;;15.40;99.90;;;;;;4972584;28;20078;-86
2022/06/06 02:31:15;;;;;;;47.45;22.10;;;15.40;99.90;;;;;;4972424;28;20059;-87
2022/06/06 02:33:55;;;;;;;52.83;23.92;;;14.50;99.90;;;;;;4956701;28;20061;-87
2022/06/06 02:36:35;;;;;;;48.20;22.17;;;14.40;99.90;;;;;;4957370;28;20120;-87
2022/06/06 02:39:30;;;;;;;44.53;20.08;;;15.00;99.90;;;;;;4955919;28;20089;-88
2022/06/06 02:42:08;;;;;;;38.25;18.08;;;14.30;99.90;;;;;;4973098;28;20055;-88
2022/06/06 02:45:21;;;;;;;32.25;16.30;;;15.30;99.90;;;;;;4956011;28;20500;-86
2022/06/06 02:53:13;;;;;;;33.28;16.27;;;14.20;99.90;;;;;;4970915;28;20431;-87
2022/06/06 02:55:45;;;;;;;37.50;16.17;;;15.30;99.90;;;;;;4958279;28;20066;-88
2022/06/06 02:58:11;;;;;;;41.67;17.13;;;14.10;99.90;;;;;;4968174;23;20055;-87
2022/06/06 03:01:11;;;;;;;37.20;16.80;;;15.20;99.90;;;;;;4952888;28;20057;-87
2022/06/06 03:03:40;;;;;;;43.03;17.73;;;15.00;99.90;;;;;;4953977;29;20159;-87
2022/06/06 03:06:07;;;;;;;42.10;17.45;;;15.20;99.90;;;;;;4953724;29;20086;-87
2022/06/06 03:09:10;;;;;;;45.45;18.40;;;14.00;99.90;;;;;;4925704;29;20051;-88
2022/06/06 03:12:27;;;;;;;46.08;17.73;;;14.00;99.90;;;;;;4954594;29;20055;-87
2022/06/06 03:26:23;;;;;;;36.65;13.98;;;13.50;99.90;;;;;;4935678;29;20051;-87
2022/06/06 03:29:26;;;;;;;31.05;12.82;;;13.60;99.90;;;;;;4954101;29;20075;-88
2022/06/06 03:32:30;;;;;;;31.85;12.63;;;13.80;99.90;;;;;;4954451;29;20055;-87
2022/06/06 03:35:24;;;;;;;31.92;12.23;;;13.90;99.90;;;;;;4953924;29;20089;-88
2022/06/06 03:38:21;;;;;;;25.25;11.00;;;13.80;99.90;;;;;;4954211;29;20083;-87
2022/06/06 03:41:23;;;;;;;34.05;11.57;;;13.70;99.90;;;;;;4952289;29;20058;-87
2022/06/06 03:47:00;;;;;;;27.75;11.35;;;13.60;99.90;;;;;;5048642;23;20046;-87
2022/06/06 03:53:02;;;;;;;31.98;11.77;;;13.60;99.90;;;;;;4971465;23;20150;-87
2022/06/06 03:55:46;;;;;;;;;;;13.60;99.90;;;;;;4954737;29;20055;-87
2022/06/06 03:58:16;;;;;;;27.15;10.73;;;13.50;99.90;;;;;;4937226;29;19922;-87
2022/06/06 04:00:45;;;;;;;32.38;10.93;;;13.60;99.90;;;;;;4935008;29;20031;-87
2022/06/06 04:03:15;;;;;;;21.83;9.85;;;13.50;99.90;;;;;;5142540;23;21073;-87
2022/06/06 04:06:15;;;;;;;29.80;10.73;;;13.50;99.90;;;;;;4990558;23;20049;-88
2022/06/06 04:09:31;;;;;;;29.67;11.40;;;12.80;99.90;;;;;;5050466;23;20096;-90
2022/06/06 04:12:50;;;;;;;28.33;10.32;;;13.60;99.90;;;;;;4976776;28;20066;-87
2022/06/06 04:16:17;;;;;;;32.45;11.48;;;13.40;99.90;;;;;;4978607;28;20483;-88
2022/06/06 04:19:32;;;;;;;27.75;10.70;;;13.60;99.90;;;;;;4994639;28;20058;-88
2022/06/06 04:22:49;;;;;;;32.38;12.18;;;13.30;99.90;;;;;;4995416;28;20105;-88
2022/06/06 04:25:46;;;;;;;29.75;12.02;;;13.40;99.90;;;;;;4995599;28;20049;-88
2022/06/06 04:28:47;;;;;;;31.83;12.73;;;13.40;99.90;;;;;;4979161;28;20055;-88
2022/06/06 04:31:59;;;;;;;28.00;11.27;;;13.50;99.90;;;;;;4995473;28;20133;-88
2022/06/06 04:34:43;;;;;;;33.10;12.43;;;13.40;99.90;;;;;;4996329;28;20054;-88
2022/06/06 04:38:16;;;;;;;27.80;11.45;;;13.50;99.90;;;;;;4977387;28;20181;-89
2022/06/06 04:48:27;;;;;;;27.38;12.15;;;13.40;99.90;;;;;;4976048;28;20045;-87
2022/06/06 04:51:17;;;;;;;29.90;12.15;;;14.50;99.90;;;;;;4976284;28;20125;-88
2022/06/06 04:53:52;;;;;;;29.80;12.82;;;14.50;99.90;;;;;;4975914;28;20055;-88
2022/06/06 04:56:20;;;;;;;27.33;12.07;;;13.50;99.90;;;;;;4976175;28;20043;-87
2022/06/06 04:59:15;;;;;;;24.95;11.77;;;13.60;99.90;;;;;;4957840;28;20482;-88
2022/06/06 05:01:44;;;;;;;28.15;12.55;;;14.40;99.90;;;;;;4976527;28;20054;-87
2022/06/06 05:04:29;;;;;;;27.13;11.80;;;13.60;99.90;;;;;;4958571;28;20046;-88
2022/06/06 05:07:19;;;;;;;22.20;10.85;;;13.60;99.90;;;;;;4958157;28;20066;-88
2022/06/06 05:10:26;;;;;;;21.67;10.45;;;13.50;99.90;;;;;;4958846;28;20399;-88
2022/06/06 05:13:36;;;;;;;23.30;10.73;;;13.60;99.90;;;;;;4958527;28;20046;-88
2022/06/06 05:20:07;;;;;;;19.38;9.02;;;13.70;99.90;;;;;;5001471;23;20066;-87
2022/06/06 05:23:42;;;;;;;17.27;8.52;;;13.40;99.90;;;;;;4980921;28;20050;-87
2022/06/06 05:27:07;;;;;;;17.17;7.70;;;13.40;99.90;;;;;;4977226;28;20529;-87
2022/06/06 05:30:04;;;;;;;14.00;6.50;;;13.90;99.90;;;;;;4995025;28;20112;-88
2022/06/06 05:33:04;;;;;;;16.10;6.47;;;13.90;99.90;;;;;;4977448;28;20414;-88
2022/06/06 05:36:07;;;;;;;14.48;7.25;;;13.90;99.90;;;;;;4976910;28;20038;-88
2022/06/06 05:39:36;;;;;;;14.82;7.50;;;14.10;99.90;;;;;;4977214;28;20042;-88
2022/06/06 05:42:38;;;;;;;15.32;7.13;;;14.00;99.90;;;;;;4933875;29;20102;-88
2022/06/06 05:45:48;;;;;;;15.82;7.05;;;14.20;99.90;;;;;;4934807;29;20054;-87
2022/06/06 05:48:54;;;;;;;21.23;9.15;;;14.20;99.90;;;;;;4918105;29;20059;-87
2022/06/06 05:52:04;;;;;;;19.70;9.15;;;13.80;99.90;;;;;;4934217;29;20050;-87
2022/06/06 05:55:21;;;;;;;22.85;10.00;;;14.20;99.90;;;;;;4934346;29;20488;-87
2022/06/06 05:58:24;;;;;;;20.45;10.32;;;14.10;99.90;;;;;;4933880;29;20160;-89
2022/06/06 06:01:36;;;;;;;23.33;11.32;;;13.60;99.90;;;;;;4934217;29;20111;-87
2022/06/06 06:04:44;;;;;;;25.90;11.82;;;13.90;99.90;;;;;;4934198;29;20047;-87
2022/06/06 06:07:55;;;;;;;25.70;12.38;;;13.60;99.90;;;;;;4992602;28;20081;-86
2022/06/06 06:11:04;;;;;;;23.58;12.00;;;14.10;99.90;;;;;;4976536;28;20046;-87
2022/06/06 06:13:58;;;;;;;26.23;12.05;;;14.10;99.90;;;;;;5008155;23;20046;-86
2022/06/06 06:16:27;;;;;;;25.23;11.73;;;14.40;99.90;;;;;;5008715;28;20042;-86
2022/06/06 06:18:53;;;;;;;19.58;10.05;;;14.30;99.90;;;;;;4993561;28;20046;-88
2022/06/06 06:21:27;;;;;;;22.95;10.45;;;14.40;99.90;;;;;;4993937;28;20046;-86
2022/06/06 06:24:01;;;;;;;18.20;8.90;;;14.70;99.90;;;;;;4993206;28;20050;-87
2022/06/06 06:26:35;;;;;;;17.77;8.68;;;14.80;99.90;;;;;;5013236;23;20055;-85
2022/06/06 06:29:27;;;;;;;16.95;8.75;;;15.50;99.90;;;;;;4973043;28;20411;-87
2022/06/06 06:32:40;;;;;;;20.05;8.38;;;15.90;99.90;;;;;;4971677;28;20062;-88
2022/06/06 06:35:53;;;;;;;21.08;8.73;;;14.80;99.90;;;;;;4974874;28;20055;-88
2022/06/06 06:42:33;;;;;;;21.83;8.73;;;15.10;99.90;;;;;;4974023;28;20057;-87
2022/06/06 06:45:51;;;;;;;21.52;9.77;;;15.30;99.90;;;;;;4971950;28;20062;-87
2022/06/06 06:48:44;;;;;;;19.52;9.43;;;15.40;99.90;;;;;;4981951;23;20057;-85
2022/06/06 06:51:40;;;;;;;18.83;9.80;;;15.60;99.90;;;;;;5003605;28;20047;-86
2022/06/06 06:54:43;;;;;;;20.10;9.45;;;15.80;99.90;;;;;;4997752;28;20046;-88
2022/06/06 12:14:27;;;;;;;7.82;2.90;;;17.90;99.90;;;;;;4915580;29;20056;-89
2022/06/06 12:40:09;;;;;;;10.20;2.90;;;18.40;99.90;;;;;;4938103;29;20055;-88
2022/06/06 15:53:58;;;;;;;8.02;3.38;;;13.70;99.90;;;;;;4941140;29;20121;-88
2022/06/06 15:57:06;;;;;;;9.10;3.38;;;13.60;99.90;;;;;;4946654;29;20135;-88
2022/06/06 16:00:27;;;;;;;10.15;3.58;;;13.50;99.90;;;;;;4941832;29;20531;-88
2022/06/06 19:44:00;;;;;;;14.55;7.28;;;11.50;99.90;;;;;;4936388;29;20046;-88
2022/06/06 22:17:07;;;;;;;15.57;7.63;;;11.70;99.90;;;;;;4955965;29;20062;-87
2022/06/06 22:41:28;;;;;;;17.05;7.65;;;11.70;99.90;;;;;;5052437;23;20042;-86
2022/06/06 22:43:54;;;;;;;20.33;8.95;;;11.70;99.90;;;;;;5008826;28;20046;-86
2022/06/06 22:46:20;;;;;;;15.80;8.05;;;11.70;99.90;;;;;;4993971;28;20070;-86
2022/06/06 23:34:20;;;;;;;14.23;7.50;;;11.70;99.90;;;;;;5145870;23;20091;-86
